Albee, South Dakota
Current Conditions -  °F | °C
As of 4:53 AM on Friday 28 Nov 2014 (Local Time) from KDXX Reporting Station
Clear Clear  
Wind Chill: -2°   Ceiling: Unl
Heat Index: 12°   Visibility: 10mi
Dew Point:   Wind: 12mph
Humidity: 79%   Direction: 120°ESE
Pressure: 29.94"   Gusts: NA
Location:  45.0205°N, 96.5453°W
Report Text: KDXX 281053Z AUTO 12010KT 10SM CLR M11/M14 A2994 RMK AO2
Loading
Personal Weather Stations






























Interactive Weather Map New forecast layout! Learn more

10-Day Weather Forecast

Advertisements
Track Severe Weather on mobile